Time;durP1;ratioP1;P1;durP2;ratioP2;P2;SDS_P1;SDS_P2;PMS_P1;PMS_P2;Temp;Humidity;BMP_temperature;BMP_pressure;BME280_temperature;BME280_humidity;BME280_pressure;Samples;Min_cycle;Max_cycle;Signal;HPM_P1;HPM_P2
2021/09/12 00:00:31;;;;;;;19.80;15.50;;;17.10;99.90;;;;;;5012225;28;20030;-75
2021/09/12 00:02:56;;;;;;;20.30;15.32;;;17.10;99.90;;;;;;5023241;28;20056;-75
2021/09/12 00:05:22;;;;;;;21.77;15.73;;;17.00;99.90;;;;;;5018059;28;20028;-75
2021/09/12 00:07:47;;;;;;;20.40;15.60;;;17.00;99.90;;;;;;5018868;28;20034;-75
2021/09/12 00:10:14;;;;;;;21.85;14.98;;;17.00;99.90;;;;;;5029663;28;20025;-74
2021/09/12 00:12:40;;;;;;;23.58;16.05;;;16.90;99.90;;;;;;5031407;28;20056;-75
2021/09/12 00:15:08;;;;;;;18.55;15.50;;;17.00;99.90;;;;;;5026580;28;20025;-74
2021/09/12 00:17:34;;;;;;;21.23;16.67;;;17.00;99.90;;;;;;5010260;28;20029;-74
2021/09/12 00:19:59;;;;;;;20.05;16.17;;;17.10;99.90;;;;;;5024856;28;20354;-75
2021/09/12 00:22:25;;;;;;;19.55;15.35;;;17.00;99.90;;;;;;5022859;28;20021;-75
2021/09/12 00:24:50;;;;;;;22.33;16.23;;;16.90;99.90;;;;;;5017659;28;20080;-76
2021/09/12 00:27:16;;;;;;;18.15;14.68;;;16.90;99.90;;;;;;5020337;28;20022;-76
2021/09/12 00:29:42;;;;;;;22.10;15.68;;;16.90;99.90;;;;;;5024730;28;20022;-76
2021/09/12 00:32:07;;;;;;;23.35;16.30;;;17.00;99.90;;;;;;5021560;28;20036;-76
2021/09/12 00:34:33;;;;;;;29.70;17.48;;;16.90;99.90;;;;;;5016464;28;20048;-76
2021/09/12 00:36:58;;;;;;;23.05;17.30;;;16.80;99.90;;;;;;5019228;28;20591;-76
2021/09/12 00:39:24;;;;;;;17.88;15.48;;;16.80;99.90;;;;;;5024742;28;20022;-76
2021/09/12 00:41:49;;;;;;;25.05;17.67;;;16.90;99.90;;;;;;5020657;28;20413;-75
2021/09/12 00:44:16;;;;;;;18.95;15.55;;;16.90;99.90;;;;;;5016689;28;20017;-75
2021/09/12 00:46:46;;;;;;;25.08;16.90;;;17.00;99.90;;;;;;5020412;28;20022;-76
2021/09/12 00:49:12;;;;;;;20.10;14.60;;;17.10;99.90;;;;;;5025255;28;20045;-75
2021/09/12 00:51:38;;;;;;;21.90;16.73;;;17.20;99.90;;;;;;5021447;28;20407;-76
2021/09/12 00:54:05;;;;;;;23.92;16.95;;;17.10;99.90;;;;;;5014322;28;20034;-75
2021/09/12 00:56:34;;;;;;;25.55;16.88;;;16.90;99.90;;;;;;5024868;28;20036;-75
2021/09/12 00:59:01;;;;;;;22.80;16.63;;;17.00;99.90;;;;;;5021422;28;20025;-75
2021/09/12 01:01:27;;;;;;;23.90;16.98;;;17.00;99.90;;;;;;5022607;28;20049;-75
2021/09/12 01:03:53;;;;;;;22.40;15.45;;;17.00;99.90;;;;;;5020095;28;20029;-75
2021/09/12 01:06:19;;;;;;;23.65;16.85;;;17.10;99.90;;;;;;5020813;28;20416;-75
2021/09/12 01:08:45;;;;;;;24.08;17.45;;;17.10;99.90;;;;;;5018597;28;20369;-75
2021/09/12 01:11:11;;;;;;;21.33;15.95;;;17.00;99.90;;;;;;5022416;28;20084;-75
2021/09/12 01:13:40;;;;;;;26.67;17.38;;;16.80;99.90;;;;;;5019349;28;20041;-74
2021/09/12 01:16:18;;;;;;;25.77;18.63;;;16.80;99.90;;;;;;5021759;28;20117;-75
2021/09/12 01:18:44;;;;;;;24.75;17.70;;;16.90;99.90;;;;;;5000679;28;20396;-75
2021/09/12 01:21:12;;;;;;;22.38;15.40;;;16.80;99.90;;;;;;5013454;28;20026;-74
2021/09/12 01:23:39;;;;;;;20.58;15.05;;;16.90;99.90;;;;;;5032467;28;20030;-74
2021/09/12 01:26:05;;;;;;;23.30;16.77;;;17.00;99.90;;;;;;5033664;28;20029;-74
2021/09/12 01:28:31;;;;;;;25.15;16.35;;;16.90;99.90;;;;;;5026821;28;20034;-74
2021/09/12 01:30:56;;;;;;;24.55;16.38;;;17.00;99.90;;;;;;5014760;28;20022;-74
2021/09/12 01:33:22;;;;;;;23.58;16.40;;;17.00;99.90;;;;;;5033964;28;20479;-74
2021/09/12 01:35:48;;;;;;;25.25;17.90;;;16.90;99.90;;;;;;5019906;28;20033;-74
2021/09/12 01:38:13;;;;;;;19.58;15.00;;;16.90;99.90;;;;;;5020899;28;20041;-74
2021/09/12 01:40:39;;;;;;;18.13;12.85;;;16.90;99.90;;;;;;5019004;28;20033;-74
2021/09/12 01:43:05;;;;;;;18.77;12.57;;;17.00;99.90;;;;;;5020689;28;20491;-75
2021/09/12 01:45:30;;;;;;;18.73;13.95;;;17.10;99.90;;;;;;5018660;28;20037;-75
2021/09/12 01:48:00;;;;;;;18.90;14.70;;;17.10;99.90;;;;;;5020477;28;20033;-75
2021/09/12 01:50:27;;;;;;;18.08;14.02;;;17.20;99.90;;;;;;5020409;28;20022;-75
2021/09/12 01:52:53;;;;;;;17.88;14.32;;;17.10;99.90;;;;;;5026244;28;20095;-75
2021/09/12 01:55:19;;;;;;;19.92;15.52;;;17.10;99.90;;;;;;5012082;28;20026;-75
2021/09/12 01:57:44;;;;;;;20.27;15.27;;;16.80;99.90;;;;;;5022141;28;20028;-74
2021/09/12 02:00:10;;;;;;;26.90;17.52;;;16.60;99.90;;;;;;5033401;28;20071;-74
2021/09/12 02:02:35;;;;;;;21.60;15.98;;;16.60;99.90;;;;;;5016936;28;20041;-74
2021/09/12 02:05:02;;;;;;;17.02;13.68;;;16.50;99.90;;;;;;5026989;28;20025;-74
2021/09/12 02:07:27;;;;;;;19.13;14.43;;;16.60;99.90;;;;;;5024937;28;20030;-74
2021/09/12 02:09:53;;;;;;;14.60;12.82;;;16.80;99.90;;;;;;5028345;28;20391;-74
2021/09/12 02:12:19;;;;;;;20.20;14.98;;;17.00;99.90;;;;;;5034066;28;20029;-75
2021/09/12 02:14:44;;;;;;;21.70;16.25;;;17.00;99.90;;;;;;5018189;28;20029;-75
2021/09/12 02:17:10;;;;;;;24.85;15.88;;;16.70;99.90;;;;;;5021274;28;20212;-75
2021/09/12 02:19:36;;;;;;;29.92;18.70;;;16.40;99.90;;;;;;5019826;28;20030;-74
2021/09/12 02:22:01;;;;;;;30.02;18.88;;;16.20;99.90;;;;;;5023436;28;20033;-75
2021/09/12 02:27:02;;;;;;;28.02;18.23;;;16.20;99.90;;;;;;5094558;22;20060;-73
2021/09/12 02:29:28;;;;;;;22.88;15.38;;;16.20;99.90;;;;;;5061773;28;20032;-74
2021/09/12 02:31:53;;;;;;;23.45;16.02;;;16.40;99.90;;;;;;5054500;28;20097;-74
2021/09/12 02:34:19;;;;;;;22.25;16.10;;;16.50;99.90;;;;;;5062640;28;20021;-74
2021/09/12 02:36:45;;;;;;;16.65;13.88;;;16.50;99.90;;;;;;5036718;28;20108;-75
2021/09/12 02:39:11;;;;;;;22.58;15.63;;;16.50;99.90;;;;;;5052705;28;20025;-74
2021/09/12 02:41:36;;;;;;;18.70;13.57;;;16.50;99.90;;;;;;5050194;28;20071;-77
2021/09/12 02:44:03;;;;;;;19.92;14.32;;;16.50;99.90;;;;;;5042387;28;20037;-77
2021/09/12 02:46:28;;;;;;;27.60;17.00;;;16.50;99.90;;;;;;5040834;28;20383;-76
2021/09/12 02:48:54;;;;;;;22.35;16.58;;;16.50;99.90;;;;;;5063309;28;20028;-76
2021/09/12 02:51:19;;;;;;;21.00;16.25;;;16.40;99.90;;;;;;5036576;28;20379;-76
2021/09/12 02:53:45;;;;;;;22.38;14.82;;;16.40;99.90;;;;;;5032673;28;20040;-77
2021/09/12 02:56:10;;;;;;;23.13;17.92;;;16.40;99.90;;;;;;5034928;28;20044;-77
2021/09/12 02:58:36;;;;;;;25.90;17.55;;;16.20;99.90;;;;;;5043392;28;20109;-76
2021/09/12 03:01:01;;;;;;;20.45;15.35;;;16.10;99.90;;;;;;5034651;28;20430;-77
2021/09/12 03:03:27;;;;;;;17.40;14.15;;;16.10;99.90;;;;;;5042495;28;20052;-77
2021/09/12 03:05:52;;;;;;;16.05;13.05;;;16.20;99.90;;;;;;5045767;28;20112;-77
2021/09/12 03:08:18;;;;;;;14.50;12.40;;;16.10;99.90;;;;;;5050067;28;20020;-77
2021/09/12 03:10:43;;;;;;;14.20;11.90;;;16.10;99.90;;;;;;5040342;28;20590;-77
2021/09/12 03:13:09;;;;;;;22.90;14.40;;;16.20;99.90;;;;;;5039512;28;20394;-77
2021/09/12 03:15:35;;;;;;;14.88;11.95;;;16.20;99.90;;;;;;5036999;28;20029;-76
2021/09/12 03:18:00;;;;;;;14.93;12.32;;;16.20;99.90;;;;;;5042390;28;20040;-76
2021/09/12 03:20:26;;;;;;;19.42;14.73;;;16.30;99.90;;;;;;5045598;28;20437;-77
2021/09/12 03:22:52;;;;;;;15.77;13.25;;;16.40;99.90;;;;;;5040316;28;20444;-77
2021/09/12 03:25:17;;;;;;;23.25;15.40;;;16.30;99.90;;;;;;5037846;28;20036;-76
2021/09/12 03:27:43;;;;;;;15.05;12.77;;;16.20;99.90;;;;;;5044601;28;20080;-77
2021/09/12 03:30:09;;;;;;;17.80;15.02;;;16.20;99.90;;;;;;5031938;28;20018;-77
2021/09/12 03:32:34;;;;;;;22.42;15.68;;;16.40;99.90;;;;;;5039232;28;20481;-76
2021/09/12 03:35:00;;;;;;;21.77;15.55;;;16.50;99.90;;;;;;5050983;28;20028;-76
2021/09/12 03:37:26;;;;;;;18.17;14.73;;;16.50;99.90;;;;;;5037931;28;20029;-76
2021/09/12 03:39:51;;;;;;;23.83;15.65;;;16.40;99.90;;;;;;5040495;28;20495;-79
2021/09/12 03:42:17;;;;;;;16.58;14.13;;;16.30;99.90;;;;;;5052375;28;20103;-78
2021/09/12 03:44:42;;;;;;;17.90;14.73;;;16.30;99.90;;;;;;5038557;28;20453;-78
2021/09/12 03:47:08;;;;;;;24.13;16.88;;;16.40;99.90;;;;;;5045211;28;20554;-79
2021/09/12 03:49:33;;;;;;;21.13;15.77;;;16.30;99.90;;;;;;5045861;28;20029;-79
2021/09/12 03:51:59;;;;;;;28.23;19.08;;;16.20;99.90;;;;;;5039403;28;20391;-78
2021/09/12 03:54:24;;;;;;;18.17;14.95;;;16.10;99.90;;;;;;5038324;28;20116;-78
2021/09/12 03:56:50;;;;;;;18.98;14.98;;;16.30;99.90;;;;;;5049839;28;20078;-77
2021/09/12 03:59:15;;;;;;;19.85;16.13;;;16.40;99.90;;;;;;5037911;28;20025;-77
2021/09/12 04:01:41;;;;;;;21.13;15.32;;;16.60;99.90;;;;;;5043974;28;20017;-77
2021/09/12 04:04:07;;;;;;;22.63;17.20;;;16.60;99.90;;;;;;5030330;28;20034;-78
2021/09/12 04:06:32;;;;;;;22.95;17.60;;;16.70;99.90;;;;;;5035627;28;20021;-78
2021/09/12 04:08:58;;;;;;;23.92;17.90;;;16.80;99.90;;;;;;5038017;28;20483;-78
2021/09/12 04:11:23;;;;;;;27.65;19.00;;;16.70;99.90;;;;;;5044744;28;20156;-77
2021/09/12 04:13:49;;;;;;;21.15;15.30;;;16.40;99.90;;;;;;5042683;28;20083;-77
2021/09/12 04:16:15;;;;;;;28.83;18.75;;;16.50;99.90;;;;;;5036523;28;20036;-77
2021/09/12 04:18:41;;;;;;;21.58;17.15;;;16.40;99.90;;;;;;5037941;28;20435;-78
2021/09/12 04:21:07;;;;;;;18.98;16.38;;;16.40;99.90;;;;;;5044863;28;20112;-77
2021/09/12 04:23:32;;;;;;;23.25;17.20;;;16.50;99.90;;;;;;5042130;28;20043;-77
2021/09/12 04:25:58;;;;;;;19.35;16.27;;;16.40;99.90;;;;;;5037569;28;20029;-76
2021/09/12 04:28:23;;;;;;;25.70;18.08;;;16.60;99.90;;;;;;5052421;28;20039;-75
2021/09/12 04:30:49;;;;;;;20.85;15.93;;;16.50;99.90;;;;;;5041809;28;20049;-76
2021/09/12 04:33:15;;;;;;;26.40;17.65;;;16.60;99.90;;;;;;5046212;28;20486;-76
2021/09/12 04:35:40;;;;;;;25.85;18.40;;;16.70;99.90;;;;;;5033584;28;20079;-77
2021/09/12 04:38:06;;;;;;;20.33;16.35;;;16.70;99.90;;;;;;5035068;28;20040;-77
2021/09/12 04:40:32;;;;;;;29.98;19.77;;;16.60;99.90;;;;;;5048400;28;20032;-76
2021/09/12 04:42:57;;;;;;;27.52;19.85;;;16.70;99.90;;;;;;5042310;28;20029;-76
2021/09/12 04:45:23;;;;;;;25.00;18.10;;;16.50;99.90;;;;;;5039873;28;20026;-76
2021/09/12 04:47:48;;;;;;;31.95;21.33;;;16.40;99.90;;;;;;5047566;28;20072;-76
2021/09/12 04:50:14;;;;;;;27.75;19.63;;;16.40;99.90;;;;;;5050010;28;20021;-79
2021/09/12 04:52:39;;;;;;;28.27;19.60;;;16.50;99.90;;;;;;5048922;28;20034;-77
2021/09/12 04:55:05;;;;;;;27.60;19.80;;;16.50;99.90;;;;;;5049130;28;20029;-77
2021/09/12 04:57:31;;;;;;;30.70;20.25;;;16.50;99.90;;;;;;5041794;28;20111;-78
2021/09/12 04:59:57;;;;;;;29.30;20.23;;;16.50;99.90;;;;;;5055204;28;20793;-79
2021/09/12 05:02:22;;;;;;;29.48;19.77;;;16.50;99.90;;;;;;5040196;28;20029;-76
2021/09/12 05:04:48;;;;;;;31.13;21.73;;;16.60;99.90;;;;;;5041136;28;20032;-76
2021/09/12 05:07:13;;;;;;;28.10;19.98;;;16.60;99.90;;;;;;5047981;28;20026;-77
2021/09/12 05:09:39;;;;;;;25.90;19.75;;;16.70;99.90;;;;;;5046153;28;20506;-76
2021/09/12 05:12:04;;;;;;;27.05;18.50;;;16.70;99.90;;;;;;5040975;28;20075;-76
2021/09/12 05:14:30;;;;;;;28.25;20.52;;;16.70;99.90;;;;;;5066815;28;20016;-76
2021/09/12 05:16:55;;;;;;;26.85;20.48;;;16.80;99.90;;;;;;5034204;28;20025;-76
2021/09/12 05:19:21;;;;;;;25.15;19.90;;;16.90;99.90;;;;;;5046908;28;20382;-77
2021/09/12 05:21:46;;;;;;;27.55;20.58;;;16.80;99.90;;;;;;5048896;28;20360;-77
2021/09/12 05:24:12;;;;;;;28.17;20.05;;;16.80;99.90;;;;;;5046304;28;20115;-77
2021/09/12 05:26:37;;;;;;;28.85;20.48;;;16.80;99.90;;;;;;5033705;28;20491;-77
2021/09/12 05:29:03;;;;;;;28.85;20.25;;;16.80;99.90;;;;;;5046001;28;20478;-77
2021/09/12 05:31:28;;;;;;;30.08;21.55;;;16.90;99.90;;;;;;5035695;28;20043;-77
2021/09/12 05:33:54;;;;;;;25.45;19.70;;;16.80;99.90;;;;;;5045963;28;20028;-76
2021/09/12 05:36:19;;;;;;;25.48;20.00;;;16.80;99.90;;;;;;5038731;28;20025;-77
2021/09/12 05:38:45;;;;;;;28.33;20.25;;;16.80;99.90;;;;;;5053836;28;20021;-77
2021/09/12 05:41:10;;;;;;;27.65;21.52;;;16.90;99.90;;;;;;5048010;28;20025;-76
2021/09/12 05:43:36;;;;;;;29.45;21.27;;;16.80;99.90;;;;;;5043816;28;20486;-77
2021/09/12 05:46:01;;;;;;;32.50;21.63;;;16.90;99.90;;;;;;5035727;28;20022;-77
2021/09/12 05:48:27;;;;;;;32.05;22.25;;;16.80;99.90;;;;;;5043688;28;20029;-77
2021/09/12 05:50:52;;;;;;;29.10;21.40;;;16.70;99.90;;;;;;5035704;28;20072;-76
2021/09/12 05:53:20;;;;;;;28.75;21.40;;;16.70;99.90;;;;;;5045078;28;20036;-77
2021/09/12 05:55:47;;;;;;;30.08;22.58;;;16.70;99.90;;;;;;5052071;28;20032;-77
2021/09/12 05:58:13;;;;;;;31.35;22.45;;;16.70;99.90;;;;;;5065057;28;20032;-76
2021/09/12 06:00:38;;;;;;;34.03;22.67;;;16.70;99.90;;;;;;5062628;28;20029;-77
2021/09/12 06:03:04;;;;;;;32.85;24.00;;;16.70;99.90;;;;;;5033471;28;20029;-76
2021/09/12 06:05:30;;;;;;;33.65;23.88;;;16.60;99.90;;;;;;5031764;28;20083;-77
2021/09/12 06:07:56;;;;;;;34.50;22.85;;;16.60;99.90;;;;;;5033602;28;20028;-77
2021/09/12 06:10:21;;;;;;;35.75;24.20;;;16.50;99.90;;;;;;5033712;28;20118;-77
2021/09/12 06:12:47;;;;;;;34.58;24.90;;;16.50;99.90;;;;;;5033478;28;20108;-77
2021/09/12 06:15:13;;;;;;;32.72;22.25;;;16.50;99.90;;;;;;5037328;28;20032;-77
2021/09/12 06:17:38;;;;;;;36.75;24.58;;;16.60;99.90;;;;;;5042258;28;20032;-77
2021/09/12 06:20:05;;;;;;;34.90;24.75;;;16.50;99.90;;;;;;5046495;28;20052;-77
2021/09/12 06:22:30;;;;;;;33.45;23.88;;;16.70;99.90;;;;;;5044133;28;20521;-77
2021/09/12 06:24:56;;;;;;;33.58;24.80;;;16.80;99.90;;;;;;5037737;28;20029;-75
2021/09/12 06:27:21;;;;;;;35.75;23.50;;;16.80;99.90;;;;;;5041084;28;20077;-75
2021/09/12 06:29:47;;;;;;;32.67;25.17;;;16.70;99.90;;;;;;5046210;28;20061;-76
2021/09/12 06:32:12;;;;;;;34.55;24.60;;;16.60;99.90;;;;;;5040023;28;20032;-76
2021/09/12 06:34:38;;;;;;;33.75;24.70;;;16.70;99.90;;;;;;5045674;28;20067;-76
2021/09/12 06:37:04;;;;;;;38.25;24.10;;;16.60;99.90;;;;;;5041938;28;20060;-77
2021/09/12 06:39:29;;;;;;;32.30;24.90;;;16.60;99.90;;;;;;5031828;28;20025;-75
2021/09/12 06:41:55;;;;;;;35.22;24.67;;;16.70;99.90;;;;;;5035637;28;20028;-76
2021/09/12 06:44:21;;;;;;;32.13;23.73;;;16.70;99.90;;;;;;5052363;28;20036;-76
2021/09/12 06:46:46;;;;;;;32.08;23.40;;;16.80;99.90;;;;;;5052420;28;20056;-76
2021/09/12 06:49:12;;;;;;;29.65;22.02;;;16.80;99.90;;;;;;5048336;28;20029;-77
2021/09/12 06:51:38;;;;;;;29.83;22.15;;;16.80;99.90;;;;;;5042877;28;20067;-76
2021/09/12 06:54:03;;;;;;;25.80;21.33;;;16.70;99.90;;;;;;5052522;28;20199;-76
2021/09/12 06:56:29;;;;;;;28.13;22.30;;;16.80;99.90;;;;;;5040344;28;20033;-76
2021/09/12 06:58:54;;;;;;;26.70;21.33;;;16.90;99.90;;;;;;5045839;28;20044;-76
2021/09/12 07:01:20;;;;;;;25.95;21.52;;;16.80;99.90;;;;;;5032404;28;20068;-76
2021/09/12 07:03:45;;;;;;;27.60;21.73;;;16.90;99.90;;;;;;5050208;28;20028;-76
2021/09/12 07:06:11;;;;;;;29.48;22.90;;;16.80;99.90;;;;;;5051959;28;20043;-77
2021/09/12 07:08:37;;;;;;;24.30;19.42;;;16.90;99.90;;;;;;5041084;28;20167;-76
2021/09/12 07:11:03;;;;;;;20.77;16.80;;;17.00;99.90;;;;;;5052106;28;20025;-76
2021/09/12 07:13:29;;;;;;;21.13;17.13;;;17.20;99.90;;;;;;5048929;28;20025;-76
2021/09/12 07:15:54;;;;;;;22.60;18.08;;;17.30;99.90;;;;;;5032131;28;20032;-77
2021/09/12 07:18:20;;;;;;;18.33;15.98;;;17.40;99.90;;;;;;5033257;28;20059;-75
2021/09/12 07:20:45;;;;;;;18.23;13.63;;;17.40;99.90;;;;;;5036035;28;20402;-76
2021/09/12 07:23:11;;;;;;;13.68;12.25;;;17.50;99.90;;;;;;5061758;28;20039;-76
2021/09/12 07:25:36;;;;;;;13.63;11.63;;;17.50;99.90;;;;;;5061668;28;20043;-76
2021/09/12 07:28:02;;;;;;;12.20;10.88;;;17.70;99.90;;;;;;5050390;28;20083;-76
2021/09/12 07:30:28;;;;;;;14.10;11.35;;;17.90;99.90;;;;;;5050839;28;20040;-76
2021/09/12 07:32:54;;;;;;;13.45;11.50;;;17.80;99.90;;;;;;5041092;28;20040;-75
2021/09/12 07:35:20;;;;;;;14.98;11.98;;;17.70;99.90;;;;;;5052156;28;20025;-74
2021/09/12 07:37:45;;;;;;;14.23;11.60;;;17.60;99.90;;;;;;5048689;28;20025;-76
2021/09/12 07:40:11;;;;;;;12.18;10.85;;;17.30;99.90;;;;;;5031807;28;20029;-76
2021/09/12 07:42:37;;;;;;;11.45;9.75;;;17.30;99.90;;;;;;5032159;28;20026;-75
2021/09/12 07:45:03;;;;;;;11.65;9.70;;;17.50;99.90;;;;;;5039893;28;20025;-76
2021/09/12 07:47:28;;;;;;;10.65;9.55;;;17.70;99.90;;;;;;5038154;28;20033;-75
2021/09/12 07:49:54;;;;;;;9.63;8.63;;;17.80;99.90;;;;;;5042404;28;20030;-76
2021/09/12 07:52:19;;;;;;;12.00;9.18;;;18.00;99.90;;;;;;5030604;28;20499;-75
2021/09/12 07:54:45;;;;;;;10.32;9.23;;;18.10;99.90;;;;;;5049985;28;20023;-76
2021/09/12 07:57:11;;;;;;;10.98;8.30;;;18.30;99.90;;;;;;5058199;28;20099;-76
2021/09/12 07:59:36;;;;;;;10.15;9.05;;;18.30;99.90;;;;;;5062689;28;20029;-75
2021/09/12 08:02:02;;;;;;;11.38;8.25;;;18.40;99.90;;;;;;5048068;28;20538;-76
2021/09/12 08:04:28;;;;;;;10.57;8.35;;;18.20;99.90;;;;;;5043626;28;20029;-76
2021/09/12 08:06:53;;;;;;;10.85;9.45;;;18.20;99.90;;;;;;5042139;28;20100;-76
2021/09/12 08:09:19;;;;;;;10.80;9.68;;;17.80;99.90;;;;;;5055716;28;20056;-76
2021/09/12 08:11:44;;;;;;;10.57;9.18;;;17.50;99.90;;;;;;5042170;28;20021;-76
2021/09/12 08:14:10;;;;;;;10.32;9.25;;;17.50;99.90;;;;;;5046904;28;20025;-76
2021/09/12 08:16:36;;;;;;;10.32;9.25;;;17.50;99.90;;;;;;5048479;28;20029;-76
2021/09/12 08:19:02;;;;;;;10.77;8.90;;;17.50;99.90;;;;;;5035532;28;20470;-76
2021/09/12 08:21:27;;;;;;;9.30;8.40;;;17.50;99.90;;;;;;5048493;28;20493;-76
2021/09/12 08:23:53;;;;;;;11.68;9.20;;;17.90;99.90;;;;;;5043955;28;20496;-75
2021/09/12 08:26:18;;;;;;;10.18;9.18;;;18.10;99.90;;;;;;5039733;28;20037;-76
2021/09/12 08:28:44;;;;;;;12.13;9.30;;;18.10;99.90;;;;;;5034171;28;20029;-76
2021/09/12 08:31:09;;;;;;;9.43;8.40;;;18.30;99.90;;;;;;5037802;28;20017;-76
2021/09/12 08:33:35;;;;;;;9.23;8.10;;;18.50;99.90;;;;;;5044853;28;20167;-76
2021/09/12 08:36:01;;;;;;;8.48;7.63;;;18.70;99.90;;;;;;5050667;28;20025;-76
2021/09/12 08:38:26;;;;;;;8.13;7.32;;;18.70;99.90;;;;;;5055037;28;20032;-76
2021/09/12 08:40:57;;;;;;;11.63;7.22;;;18.50;99.90;;;;;;5052410;28;20402;-76
2021/09/12 08:43:23;;;;;;;8.00;6.53;;;18.70;99.90;;;;;;5034189;28;20029;-76
2021/09/12 08:45:49;;;;;;;10.30;6.53;;;18.80;99.90;;;;;;5038237;28;20105;-75
2021/09/12 08:48:15;;;;;;;7.03;6.07;;;18.70;99.90;;;;;;5043215;28;20104;-76
2021/09/12 08:50:40;;;;;;;5.95;5.28;;;18.60;99.90;;;;;;5033970;28;20021;-75
2021/09/12 08:53:06;;;;;;;6.93;6.00;;;18.80;99.90;;;;;;5042804;28;20029;-75
2021/09/12 08:55:31;;;;;;;8.40;6.80;;;18.80;99.90;;;;;;5054358;28;20021;-76
2021/09/12 08:57:59;;;;;;;7.47;6.70;;;18.90;99.90;;;;;;5053460;28;20032;-75
2021/09/12 09:00:25;;;;;;;8.02;5.88;;;18.80;99.90;;;;;;5037916;28;20021;-76
2021/09/12 09:02:59;;;;;;;6.93;6.07;;;18.50;99.90;;;;;;5044426;28;20032;-76
2021/09/12 09:05:40;;;;;;;7.25;5.85;;;18.40;99.90;;;;;;5054311;28;20070;-75
2021/09/12 09:08:13;;;;;;;5.75;5.25;;;18.50;99.90;;;;;;5053024;28;20025;-75
2021/09/12 09:10:40;;;;;;;6.97;4.75;;;18.80;99.90;;;;;;5054229;28;20104;-76
2021/09/12 09:13:35;;;;;;;6.60;5.43;;;19.10;99.90;;;;;;5039587;28;20072;-76
2021/09/12 09:16:04;;;;;;;5.57;5.07;;;19.50;99.90;;;;;;5053985;28;20025;-76
2021/09/12 09:18:35;;;;;;;5.22;4.60;;;19.70;99.90;;;;;;5059291;28;20028;-76
2021/09/12 09:21:20;;;;;;;5.93;4.50;;;19.60;99.90;;;;;;5049435;28;20390;-76
2021/09/12 09:23:46;;;;;;;5.63;4.22;;;19.80;99.90;;;;;;5034653;28;20083;-77
2021/09/12 09:26:21;;;;;;;5.65;4.22;;;19.60;99.90;;;;;;5036417;28;20037;-76
2021/09/12 09:28:54;;;;;;;6.40;4.78;;;19.80;99.90;;;;;;5054590;28;20103;-75
2021/09/12 09:31:23;;;;;;;5.60;4.20;;;19.60;99.90;;;;;;5035331;28;20488;-76
2021/09/12 09:33:49;;;;;;;6.20;4.63;;;19.70;99.90;;;;;;5035286;28;20029;-76
2021/09/12 09:36:17;;;;;;;6.25;4.50;;;19.80;99.90;;;;;;5037723;28;20028;-76
2021/09/12 09:38:46;;;;;;;4.65;4.20;;;19.70;99.90;;;;;;5053699;28;20033;-75
2021/09/12 09:41:14;;;;;;;4.32;3.92;;;19.70;99.90;;;;;;5053876;28;20059;-76
2021/09/12 09:43:47;;;;;;;6.10;4.20;;;19.80;99.90;;;;;;5052295;28;20029;-76
2021/09/12 09:46:34;;;;;;;4.95;4.00;;;19.90;99.90;;;;;;5059189;28;20549;-76
2021/09/12 09:49:19;;;;;;;3.92;3.53;;;20.00;99.90;;;;;;5043831;28;20064;-76
2021/09/12 09:51:47;;;;;;;4.28;3.88;;;20.20;99.90;;;;;;5053610;28;20067;-76
2021/09/12 09:54:14;;;;;;;4.47;4.07;;;20.40;99.90;;;;;;5034006;28;20107;-76
2021/09/12 09:56:40;;;;;;;4.43;3.72;;;20.30;99.90;;;;;;5032138;28;20541;-76
2021/09/12 09:59:06;;;;;;;4.78;4.22;;;20.30;99.90;;;;;;5047040;28;20455;-76
2021/09/12 10:01:33;;;;;;;4.15;3.60;;;20.30;99.90;;;;;;5043962;28;20475;-76
2021/09/12 10:03:59;;;;;;;3.72;3.38;;;20.60;99.90;;;;;;5052088;28;20044;-76
2021/09/12 10:06:25;;;;;;;3.88;3.17;;;20.40;99.90;;;;;;5065397;28;20017;-76
2021/09/12 10:08:51;;;;;;;3.28;2.97;;;20.40;99.90;;;;;;5045126;28;20023;-76
2021/09/12 10:11:16;;;;;;;5.40;3.10;;;20.50;99.90;;;;;;5049501;28;20022;-76
2021/09/12 10:13:43;;;;;;;3.47;3.17;;;20.50;99.90;;;;;;5038356;28;20029;-76
2021/09/12 10:16:10;;;;;;;3.45;3.15;;;20.80;99.90;;;;;;5039542;28;20549;-75
2021/09/12 10:18:39;;;;;;;3.35;3.00;;;20.80;99.90;;;;;;5031697;28;20112;-77
2021/09/12 10:21:23;;;;;;;5.15;3.03;;;20.80;99.90;;;;;;5044636;28;20115;-77
2021/09/12 10:24:03;;;;;;;3.88;3.00;;;21.00;99.90;;;;;;5041223;28;20021;-76
2021/09/12 10:26:34;;;;;;;3.45;3.15;;;20.90;99.90;;;;;;5034479;28;20067;-77
2021/09/12 10:28:59;;;;;;;5.18;3.22;;;21.10;99.90;;;;;;5044700;28;20483;-76
2021/09/12 10:31:28;;;;;;;5.43;3.47;;;21.00;99.90;;;;;;5039423;28;20029;-76
2021/09/12 10:34:07;;;;;;;3.95;3.10;;;20.80;99.90;;;;;;5041123;28;20112;-77
2021/09/12 10:36:33;;;;;;;4.85;3.10;;;20.60;99.90;;;;;;5043349;28;20025;-73
2021/09/12 10:39:24;;;;;;;3.67;3.03;;;20.80;99.90;;;;;;5050502;28;20029;-76
2021/09/12 10:42:11;;;;;;;7.85;3.10;;;21.00;99.90;;;;;;5042148;28;20021;-77
2021/09/12 10:44:36;;;;;;;3.30;2.97;;;20.70;99.90;;;;;;5037194;28;20021;-76
2021/09/12 10:47:06;;;;;;;3.92;2.78;;;20.70;99.90;;;;;;5052275;28;20031;-76
2021/09/12 10:49:32;;;;;;;3.30;2.25;;;20.70;99.90;;;;;;5052377;28;20100;-76
2021/09/12 10:51:58;;;;;;;2.47;2.17;;;20.70;99.90;;;;;;5039782;28;20076;-76
2021/09/12 10:54:23;;;;;;;2.92;2.42;;;20.50;99.90;;;;;;5051568;28;20431;-77
2021/09/12 10:57:04;;;;;;;4.07;2.67;;;20.60;99.90;;;;;;5050997;28;20025;-77
2021/09/12 10:59:31;;;;;;;2.78;2.22;;;20.70;99.90;;;;;;5048173;28;20474;-77
2021/09/12 11:01:56;;;;;;;3.00;2.10;;;21.00;99.90;;;;;;5052199;28;20083;-77
2021/09/12 11:04:30;;;;;;;3.10;2.80;;;21.00;99.90;;;;;;5042830;28;20390;-76
2021/09/12 11:07:04;;;;;;;3.25;2.70;;;20.60;99.90;;;;;;5047659;28;20479;-76
2021/09/12 11:09:32;;;;;;;4.40;2.88;;;20.70;99.90;;;;;;5052140;28;20433;-77
2021/09/12 11:11:59;;;;;;;3.45;3.00;;;21.00;99.90;;;;;;5052249;28;20063;-77
2021/09/12 11:14:26;;;;;;;2.83;2.60;;;21.30;99.90;;;;;;5051831;28;20021;-77
2021/09/12 11:16:53;;;;;;;3.35;2.45;;;21.50;99.90;;;;;;5032942;28;20021;-76
2021/09/12 11:19:19;;;;;;;3.83;2.63;;;21.60;99.90;;;;;;5030822;28;20025;-77
2021/09/12 11:21:50;;;;;;;3.17;2.88;;;21.70;99.90;;;;;;5048220;28;20021;-76
2021/09/12 11:24:28;;;;;;;2.88;2.50;;;21.90;99.90;;;;;;5041337;28;20041;-77
2021/09/12 11:27:05;;;;;;;3.67;2.90;;;22.10;99.90;;;;;;5030509;28;20068;-77
2021/09/12 11:29:36;;;;;;;3.10;2.80;;;21.90;99.90;;;;;;5047680;28;20024;-76
2021/09/12 11:32:03;;;;;;;2.70;2.50;;;21.90;99.90;;;;;;5051653;28;20071;-77
2021/09/12 11:34:30;;;;;;;3.70;2.45;;;21.60;99.90;;;;;;5038033;28;20025;-76
2021/09/12 11:37:01;;;;;;;3.30;2.58;;;21.40;99.90;;;;;;5051539;28;20048;-77
2021/09/12 11:39:32;;;;;;;3.85;2.95;;;22.00;99.90;;;;;;5033377;28;20112;-77
2021/09/12 11:41:59;;;;;;;4.40;2.63;;;21.90;99.90;;;;;;5030370;28;20535;-77
2021/09/12 11:44:36;;;;;;;4.55;2.35;;;22.00;99.90;;;;;;5035905;28;20466;-77
2021/09/12 11:47:06;;;;;;;2.45;2.25;;;21.80;99.90;;;;;;5051594;28;20104;-77
2021/09/12 11:49:32;;;;;;;3.30;2.50;;;21.70;99.90;;;;;;5051986;28;20040;-76
2021/09/12 11:51:57;;;;;;;3.33;2.17;;;21.50;99.90;;;;;;5050144;28;20475;-77
2021/09/12 11:54:29;;;;;;;2.50;2.30;;;21.50;99.90;;;;;;5050036;28;20033;-77
2021/09/12 11:56:58;;;;;;;1.92;1.80;;;22.30;99.90;;;;;;5063918;28;20025;-77
2021/09/12 11:59:26;;;;;;;2.20;1.80;;;23.10;99.90;;;;;;5031641;28;20057;-77
2021/09/12 12:01:53;;;;;;;3.35;2.15;;;23.50;99.90;;;;;;5031582;28;20565;-77
2021/09/12 12:04:20;;;;;;;2.60;2.40;;;24.00;99.90;;;;;;5049933;28;20116;-77
2021/09/12 12:06:48;;;;;;;2.03;1.83;;;24.20;99.90;;;;;;5051573;28;20100;-76
2021/09/12 12:09:25;;;;;;;2.85;2.10;;;24.40;99.90;;;;;;5051406;28;20510;-76
2021/09/12 12:11:51;;;;;;;2.13;1.95;;;24.10;99.90;;;;;;5049985;28;20406;-76
2021/09/12 12:14:24;;;;;;;3.30;2.28;;;24.00;99.90;;;;;;5051173;28;20486;-76
2021/09/12 12:16:51;;;;;;;2.20;2.00;;;24.00;99.90;;;;;;5051398;28;20024;-76
2021/09/12 12:19:18;;;;;;;2.92;2.20;;;24.20;99.90;;;;;;5051379;28;20021;-76
2021/09/12 12:21:50;;;;;;;3.90;1.98;;;25.40;99.90;;;;;;5051275;28;20136;-77
2021/09/12 12:24:20;;;;;;;1.70;1.60;;;25.30;99.90;;;;;;5051027;28;20067;-77
2021/09/12 12:26:52;;;;;;;3.30;2.05;;;25.50;99.90;;;;;;5051078;28;20025;-77
2021/09/12 12:29:28;;;;;;;2.08;1.77;;;25.20;99.90;;;;;;5051330;28;20029;-77
2021/09/12 12:31:56;;;;;;;1.85;1.55;;;25.10;99.90;;;;;;5049876;28;20063;-77
2021/09/12 12:34:42;;;;;;;1.98;1.88;;;24.80;99.90;;;;;;5035893;28;20395;-77